Time;durP1;ratioP1;P1;durP2;ratioP2;P2;SDS_P1;SDS_P2;PMS_P1;PMS_P2;Temp;Humidity;BMP_temperature;BMP_pressure;BME280_temperature;BME280_humidity;BME280_pressure;Samples;Min_cycle;Max_cycle;Signal;HPM_P1;HPM_P2
2024/01/31 00:00:19;;;;;;;5.40;4.90;;;8.20;99.90;;;;;;5018424;28;20417;-69
2024/01/31 00:02:47;;;;;;;7.30;5.63;;;8.20;99.90;;;;;;5011686;28;20427;-69
2024/01/31 00:05:14;;;;;;;8.07;6.00;;;8.20;99.90;;;;;;5012190;28;20407;-69
2024/01/31 00:07:41;;;;;;;7.38;6.28;;;8.10;99.90;;;;;;5016895;28;20493;-69
2024/01/31 00:10:09;;;;;;;5.80;5.30;;;8.10;99.90;;;;;;5015896;28;20435;-69
2024/01/31 00:12:36;;;;;;;6.70;5.53;;;8.10;99.90;;;;;;5007866;28;20511;-68
2024/01/31 00:15:03;;;;;;;6.53;5.88;;;8.10;99.90;;;;;;5011982;28;20494;-69
2024/01/31 00:17:30;;;;;;;7.57;5.90;;;8.10;99.90;;;;;;5008837;28;20511;-69
2024/01/31 00:19:58;;;;;;;7.60;6.07;;;8.10;99.90;;;;;;5009986;28;20546;-70
2024/01/31 00:22:24;;;;;;;9.10;7.40;;;8.10;99.90;;;;;;5016994;28;20433;-69
2024/01/31 00:24:51;;;;;;;8.07;6.63;;;8.10;99.90;;;;;;5016121;28;20411;-69
2024/01/31 00:27:18;;;;;;;8.77;7.88;;;8.00;99.90;;;;;;5019493;28;20753;-69
2024/01/31 00:29:45;;;;;;;8.10;7.28;;;8.00;99.90;;;;;;5014378;28;20461;-69
2024/01/31 00:32:11;;;;;;;8.30;7.20;;;8.00;99.90;;;;;;5024540;28;20872;-69
2024/01/31 00:34:38;;;;;;;8.80;7.90;;;8.00;99.90;;;;;;5011853;28;20416;-69
2024/01/31 00:37:06;;;;;;;9.75;8.57;;;8.00;99.90;;;;;;5024502;28;20511;-71
2024/01/31 00:39:34;;;;;;;9.68;8.00;;;8.00;99.90;;;;;;5025036;28;20411;-69
2024/01/31 00:42:01;;;;;;;10.15;8.18;;;8.00;99.90;;;;;;5024371;28;20528;-69
2024/01/31 00:44:27;;;;;;;9.70;8.70;;;8.00;99.90;;;;;;5022272;28;20420;-69
2024/01/31 00:46:54;;;;;;;10.60;8.90;;;7.90;99.90;;;;;;5027005;28;20742;-69
2024/01/31 00:49:21;;;;;;;9.43;8.35;;;7.90;99.90;;;;;;5026426;28;20427;-69
2024/01/31 00:51:48;;;;;;;10.00;8.80;;;7.90;99.90;;;;;;5020048;28;20424;-70
2024/01/31 00:54:16;;;;;;;10.10;8.43;;;7.90;99.90;;;;;;5013037;28;20407;-69
2024/01/31 00:56:43;;;;;;;10.27;8.67;;;7.90;99.90;;;;;;5019147;28;20475;-69
2024/01/31 00:59:09;;;;;;;9.85;8.68;;;7.90;99.90;;;;;;5020465;28;20874;-69
2024/01/31 01:01:36;;;;;;;10.98;9.77;;;7.90;99.90;;;;;;5013784;28;20412;-69
2024/01/31 01:04:03;;;;;;;12.82;10.20;;;7.90;99.90;;;;;;5016191;28;20870;-69
2024/01/31 01:06:30;;;;;;;11.25;9.63;;;7.90;99.90;;;;;;5010298;28;20795;-71
2024/01/31 01:08:56;;;;;;;11.85;10.15;;;7.80;99.90;;;;;;5018252;28;20432;-68
2024/01/31 01:11:25;;;;;;;12.88;11.13;;;7.80;99.90;;;;;;5017163;28;20435;-70
2024/01/31 01:13:52;;;;;;;13.95;10.35;;;7.70;99.90;;;;;;5016744;28;20507;-68
2024/01/31 01:16:18;;;;;;;13.82;11.20;;;7.70;99.90;;;;;;5013591;28;20440;-71
2024/01/31 01:18:45;;;;;;;12.27;10.90;;;7.60;99.90;;;;;;5014538;28;20737;-71
2024/01/31 01:21:12;;;;;;;14.02;11.80;;;7.60;99.90;;;;;;5010910;28;20469;-68
2024/01/31 01:23:39;;;;;;;13.30;11.90;;;7.50;99.90;;;;;;5013251;28;20887;-70
2024/01/31 01:26:06;;;;;;;17.10;12.13;;;7.50;99.90;;;;;;5013311;28;20521;-68
2024/01/31 01:28:34;;;;;;;13.27;11.40;;;7.50;99.90;;;;;;5019656;28;20881;-70
2024/01/31 01:31:01;;;;;;;13.52;11.52;;;7.40;99.90;;;;;;5011605;28;20435;-70
2024/01/31 01:33:27;;;;;;;13.40;11.75;;;7.50;99.90;;;;;;5019806;28;20757;-70
2024/01/31 01:35:54;;;;;;;13.13;11.60;;;7.40;99.90;;;;;;5008311;28;20432;-68
2024/01/31 01:38:21;;;;;;;15.68;12.55;;;7.40;99.90;;;;;;5015983;28;20733;-68
2024/01/31 01:40:47;;;;;;;13.75;12.25;;;7.40;99.90;;;;;;5022381;28;20559;-68
2024/01/31 01:43:16;;;;;;;14.27;12.52;;;7.30;99.90;;;;;;5016239;28;20422;-69
2024/01/31 01:45:45;;;;;;;14.60;13.10;;;7.30;99.90;;;;;;5018246;28;20910;-69
2024/01/31 01:48:12;;;;;;;14.65;13.15;;;7.30;99.90;;;;;;5014953;28;20549;-68
2024/01/31 01:50:39;;;;;;;14.32;12.80;;;7.30;99.90;;;;;;5012135;28;20855;-69
2024/01/31 01:53:07;;;;;;;13.48;11.60;;;7.30;99.90;;;;;;5015458;28;20421;-69
2024/01/31 01:55:34;;;;;;;12.63;11.20;;;7.30;99.90;;;;;;5015036;28;20417;-68
2024/01/31 01:58:01;;;;;;;14.48;12.52;;;7.20;99.90;;;;;;5011918;28;20417;-69
2024/01/31 02:00:28;;;;;;;15.05;12.60;;;7.20;99.90;;;;;;5015983;28;20417;-69
2024/01/31 02:02:56;;;;;;;15.43;13.10;;;7.20;99.90;;;;;;5019258;28;20415;-69
2024/01/31 02:05:24;;;;;;;14.53;12.43;;;7.20;99.90;;;;;;5017749;28;20426;-70
2024/01/31 02:07:51;;;;;;;14.02;11.88;;;7.20;99.90;;;;;;5016888;28;20411;-69
2024/01/31 02:10:18;;;;;;;14.00;12.50;;;7.20;99.90;;;;;;5025780;28;20634;-69
2024/01/31 02:12:45;;;;;;;15.15;12.50;;;7.20;99.90;;;;;;5016702;28;20542;-69
2024/01/31 02:15:11;;;;;;;14.57;12.60;;;7.20;99.90;;;;;;5020792;28;20922;-68
2024/01/31 02:17:38;;;;;;;13.70;12.30;;;7.20;99.90;;;;;;5014297;28;20549;-70
2024/01/31 02:20:07;;;;;;;14.57;12.45;;;7.20;99.90;;;;;;5022542;28;20520;-70
2024/01/31 02:22:35;;;;;;;14.13;12.63;;;7.20;99.90;;;;;;5015611;28;20412;-68
2024/01/31 02:25:02;;;;;;;14.77;13.25;;;7.20;99.90;;;;;;5018800;28;20430;-71
2024/01/31 02:27:29;;;;;;;17.08;14.48;;;7.30;99.90;;;;;;5021232;28;20415;-70
2024/01/31 02:29:56;;;;;;;16.45;13.60;;;7.30;99.90;;;;;;5011048;28;20526;-70
2024/01/31 02:32:22;;;;;;;15.43;13.82;;;7.30;99.90;;;;;;5025601;28;20690;-70
2024/01/31 02:34:49;;;;;;;15.52;13.55;;;7.30;99.90;;;;;;5007856;28;20413;-71
2024/01/31 02:37:16;;;;;;;15.93;14.23;;;7.30;99.90;;;;;;5015706;28;20436;-70
2024/01/31 02:39:44;;;;;;;17.70;15.10;;;7.30;99.90;;;;;;5015952;28;20507;-71
2024/01/31 02:42:10;;;;;;;17.67;15.55;;;7.40;99.90;;;;;;5018814;28;20419;-70
2024/01/31 02:44:37;;;;;;;16.52;14.52;;;7.40;99.90;;;;;;5010343;28;20475;-70
2024/01/31 02:47:04;;;;;;;17.80;15.38;;;7.40;99.90;;;;;;5013226;28;20420;-70
2024/01/31 02:49:31;;;;;;;16.58;14.85;;;7.40;99.90;;;;;;5013272;28;20407;-70
2024/01/31 02:51:58;;;;;;;18.35;15.90;;;7.40;99.90;;;;;;5018516;28;20483;-71
2024/01/31 02:54:24;;;;;;;16.10;14.43;;;7.40;99.90;;;;;;5015740;28;20417;-70
2024/01/31 02:56:52;;;;;;;18.50;16.50;;;7.50;99.90;;;;;;5010067;28;20440;-70
2024/01/31 02:59:22;;;;;;;18.77;15.82;;;7.50;99.90;;;;;;5006489;28;20423;-71
2024/01/31 03:01:49;;;;;;;17.77;15.80;;;7.50;99.90;;;;;;5018970;28;20498;-71
2024/01/31 03:04:16;;;;;;;17.42;15.63;;;7.50;99.90;;;;;;5020886;28;20432;-71
2024/01/31 03:06:43;;;;;;;18.48;15.93;;;7.50;99.90;;;;;;5014312;28;20509;-70
2024/01/31 03:09:09;;;;;;;17.35;15.20;;;7.40;99.90;;;;;;5014880;28;20436;-71
2024/01/31 03:11:36;;;;;;;18.88;16.50;;;7.40;99.90;;;;;;5021973;28;20419;-70
2024/01/31 03:14:04;;;;;;;18.92;16.92;;;7.40;99.90;;;;;;5016237;28;20443;-70
2024/01/31 03:16:31;;;;;;;16.70;14.90;;;7.40;99.90;;;;;;5022093;28;20438;-70
2024/01/31 03:18:58;;;;;;;18.73;16.00;;;7.40;99.90;;;;;;5013629;28;20865;-70
2024/01/31 03:21:25;;;;;;;18.02;15.43;;;7.40;99.90;;;;;;5011682;28;20520;-70
2024/01/31 03:23:52;;;;;;;18.65;16.55;;;7.40;99.90;;;;;;5015115;28;20631;-71
2024/01/31 03:26:19;;;;;;;17.42;15.52;;;7.40;99.90;;;;;;5019905;28;20431;-70
2024/01/31 03:28:45;;;;;;;17.20;15.38;;;7.40;99.90;;;;;;5013840;28;20492;-70
2024/01/31 03:31:13;;;;;;;18.92;15.93;;;7.40;99.90;;;;;;5020701;28;20525;-71
2024/01/31 03:33:40;;;;;;;18.30;15.60;;;7.40;99.90;;;;;;5015974;28;20537;-70
2024/01/31 03:36:10;;;;;;;18.60;16.10;;;7.40;99.90;;;;;;5013449;28;20487;-70
2024/01/31 03:38:37;;;;;;;18.08;16.23;;;7.40;99.90;;;;;;5011758;28;20411;-69
2024/01/31 03:41:04;;;;;;;19.40;16.30;;;7.40;99.90;;;;;;5011331;28;20438;-69
2024/01/31 03:43:31;;;;;;;20.67;16.00;;;7.40;99.90;;;;;;5036234;23;20925;-74
2024/01/31 03:46:00;;;;;;;18.88;15.20;;;7.40;99.90;;;;;;5027398;28;20414;-73
2024/01/31 03:48:28;;;;;;;17.92;16.00;;;7.40;99.90;;;;;;5025117;28;20824;-74
2024/01/31 03:50:55;;;;;;;20.30;16.23;;;7.40;99.90;;;;;;5028597;28;20419;-73
2024/01/31 03:53:21;;;;;;;19.30;16.33;;;7.40;99.90;;;;;;5015258;28;20427;-73
2024/01/31 03:55:48;;;;;;;18.58;15.60;;;7.40;99.90;;;;;;5005843;28;20807;-73
2024/01/31 03:58:15;;;;;;;19.02;15.82;;;7.40;99.90;;;;;;5008477;28;20437;-74
2024/01/31 04:00:42;;;;;;;20.27;16.40;;;7.30;99.90;;;;;;5008458;28;20887;-73
2024/01/31 04:03:08;;;;;;;19.27;14.93;;;7.30;99.90;;;;;;5008457;28;20475;-74
2024/01/31 04:05:37;;;;;;;19.23;15.67;;;7.30;99.90;;;;;;5008193;28;20791;-74
2024/01/31 04:08:04;;;;;;;19.08;14.90;;;7.30;99.90;;;;;;5008489;28;20466;-74
2024/01/31 04:10:31;;;;;;;19.55;16.08;;;7.30;99.90;;;;;;5008658;28;20448;-73
2024/01/31 04:12:57;;;;;;;19.40;14.60;;;7.40;99.90;;;;;;5005384;28;20424;-73
2024/01/31 04:15:24;;;;;;;19.88;15.27;;;7.40;99.90;;;;;;5008144;28;20419;-74
2024/01/31 04:17:51;;;;;;;18.35;15.02;;;7.30;99.90;;;;;;5008105;28;20436;-73
2024/01/31 04:20:17;;;;;;;18.45;14.82;;;7.30;99.90;;;;;;5008485;28;20769;-73
2024/01/31 04:22:46;;;;;;;18.27;15.40;;;7.30;99.90;;;;;;5008436;28;20499;-73
2024/01/31 04:25:12;;;;;;;20.58;16.10;;;7.40;99.90;;;;;;5008955;28;20417;-74
2024/01/31 04:27:39;;;;;;;22.17;17.55;;;7.40;99.90;;;;;;5009129;28;20413;-73
2024/01/31 04:30:10;;;;;;;20.58;17.13;;;7.30;99.90;;;;;;5008373;28;20424;-72
2024/01/31 04:32:37;;;;;;;21.10;16.60;;;7.30;99.90;;;;;;5009163;28;20423;-73
2024/01/31 04:35:04;;;;;;;22.25;17.55;;;7.40;99.90;;;;;;5010146;28;20420;-73
2024/01/31 04:37:31;;;;;;;23.00;18.35;;;7.30;99.90;;;;;;5011068;28;20904;-73
2024/01/31 04:39:59;;;;;;;24.60;17.57;;;7.30;99.90;;;;;;5012327;28;20413;-74
2024/01/31 04:42:25;;;;;;;26.10;18.67;;;7.30;99.90;;;;;;5012247;28;20428;-74
2024/01/31 04:44:52;;;;;;;25.83;18.35;;;7.20;99.90;;;;;;5009212;28;20795;-73
2024/01/31 04:47:19;;;;;;;27.67;19.75;;;7.20;99.90;;;;;;5009825;28;20409;-73
2024/01/31 04:49:45;;;;;;;28.95;19.80;;;7.10;99.90;;;;;;5008544;28;20419;-73
2024/01/31 04:52:12;;;;;;;29.10;20.60;;;7.10;99.90;;;;;;5008607;28;20413;-73
2024/01/31 04:54:39;;;;;;;24.77;18.17;;;7.00;99.90;;;;;;5008044;28;20424;-74
2024/01/31 04:57:07;;;;;;;26.77;18.75;;;7.00;99.90;;;;;;5007612;28;20428;-73
2024/01/31 04:59:37;;;;;;;23.45;17.27;;;7.00;99.90;;;;;;5008256;28;20417;-73
2024/01/31 05:02:04;;;;;;;23.08;16.70;;;7.00;99.90;;;;;;5008530;28;20425;-74
2024/01/31 05:04:31;;;;;;;22.20;15.87;;;6.90;99.90;;;;;;5007906;28;20429;-73
2024/01/31 05:06:58;;;;;;;20.33;15.67;;;7.00;99.90;;;;;;5010016;28;20786;-73
2024/01/31 05:09:25;;;;;;;19.33;13.45;;;7.00;99.90;;;;;;5006434;28;20416;-73
2024/01/31 05:11:51;;;;;;;19.27;12.90;;;7.00;99.90;;;;;;5010172;28;20451;-74
2024/01/31 05:14:19;;;;;;;20.38;12.88;;;6.90;99.90;;;;;;5007039;28;20421;-74
2024/01/31 05:16:46;;;;;;;14.10;10.40;;;6.90;99.90;;;;;;5007968;28;20416;-74
2024/01/31 05:19:13;;;;;;;15.00;10.27;;;6.90;99.90;;;;;;5007812;28;20918;-73
2024/01/31 05:21:44;;;;;;;14.70;11.52;;;6.90;99.90;;;;;;5007873;28;20420;-75
2024/01/31 05:24:11;;;;;;;16.10;10.82;;;6.90;99.90;;;;;;5007403;28;20423;-74
2024/01/31 05:26:38;;;;;;;15.50;11.23;;;6.80;99.90;;;;;;5008024;28;20428;-74
2024/01/31 05:29:05;;;;;;;15.73;11.57;;;6.80;99.90;;;;;;5007647;28;20999;-74
2024/01/31 05:31:33;;;;;;;15.60;10.85;;;6.80;99.90;;;;;;5007562;28;20431;-75
2024/01/31 05:33:59;;;;;;;18.00;12.18;;;6.80;99.90;;;;;;5007298;28;20420;-73
2024/01/31 05:36:26;;;;;;;16.30;10.88;;;6.80;99.90;;;;;;5005859;28;20432;-73
2024/01/31 05:38:53;;;;;;;16.23;11.00;;;6.80;99.90;;;;;;5007269;28;20432;-73
2024/01/31 05:41:20;;;;;;;15.80;10.90;;;6.80;99.90;;;;;;5007198;28;20913;-74
2024/01/31 05:43:47;;;;;;;17.95;11.20;;;6.70;99.90;;;;;;5009396;28;20424;-73
2024/01/31 05:46:15;;;;;;;13.93;10.20;;;6.80;99.90;;;;;;5010789;28;21391;-74
2024/01/31 05:48:43;;;;;;;17.10;11.38;;;6.70;99.90;;;;;;5011041;28;20929;-73
2024/01/31 05:51:11;;;;;;;14.93;10.10;;;6.70;99.90;;;;;;5010319;28;20476;-74
2024/01/31 05:53:37;;;;;;;17.13;10.55;;;6.70;99.90;;;;;;5009591;28;20436;-75
2024/01/31 05:56:05;;;;;;;14.38;10.23;;;6.70;99.90;;;;;;5010883;28;20439;-74
2024/01/31 05:58:31;;;;;;;18.17;10.80;;;6.70;99.90;;;;;;5010174;28;20512;-73
2024/01/31 06:00:58;;;;;;;18.00;11.77;;;6.70;99.90;;;;;;5010710;28;20424;-73
2024/01/31 06:03:27;;;;;;;16.50;11.90;;;6.70;99.90;;;;;;5010532;28;20429;-73
2024/01/31 06:05:56;;;;;;;20.48;12.80;;;6.70;99.90;;;;;;5010849;28;20451;-75
2024/01/31 06:08:24;;;;;;;23.23;14.10;;;6.70;99.90;;;;;;5016787;28;20485;-75
2024/01/31 06:10:54;;;;;;;21.55;14.27;;;6.70;99.90;;;;;;5015171;28;20474;-74
2024/01/31 06:13:21;;;;;;;22.35;13.30;;;6.70;99.90;;;;;;5012082;28;20872;-74
2024/01/31 06:15:48;;;;;;;20.25;13.30;;;6.70;99.90;;;;;;5010946;28;20684;-74
2024/01/31 06:18:15;;;;;;;18.85;12.05;;;6.70;99.90;;;;;;5011279;28;20807;-74
2024/01/31 06:20:44;;;;;;;19.25;12.20;;;6.60;99.90;;;;;;5010976;28;20417;-74
2024/01/31 06:23:12;;;;;;;15.20;10.48;;;6.60;99.90;;;;;;5011015;28;20844;-74
2024/01/31 06:25:39;;;;;;;17.75;11.90;;;6.60;99.90;;;;;;5009853;28;20567;-74
2024/01/31 06:28:07;;;;;;;16.80;11.15;;;6.60;99.90;;;;;;5010137;28;20417;-73
2024/01/31 06:30:40;;;;;;;15.95;11.65;;;6.60;99.90;;;;;;5010227;28;20428;-73
2024/01/31 06:33:07;;;;;;;19.08;12.30;;;6.60;99.90;;;;;;5008756;28;20416;-74
2024/01/31 06:35:34;;;;;;;18.40;11.93;;;6.60;99.90;;;;;;5007816;28;20584;-73
2024/01/31 06:38:01;;;;;;;22.58;13.15;;;6.60;99.90;;;;;;5009358;28;20436;-73
2024/01/31 06:40:30;;;;;;;22.27;12.88;;;6.60;99.90;;;;;;5010638;28;20424;-74
2024/01/31 06:42:57;;;;;;;19.00;13.00;;;6.70;99.90;;;;;;5004933;28;20429;-74
2024/01/31 06:45:24;;;;;;;22.48;14.05;;;6.70;99.90;;;;;;5002462;28;20421;-74
2024/01/31 06:47:51;;;;;;;20.75;12.73;;;6.70;99.90;;;;;;5009401;28;20416;-75
2024/01/31 06:50:18;;;;;;;20.73;13.40;;;6.70;99.90;;;;;;5010364;28;20506;-73
2024/01/31 06:52:45;;;;;;;20.65;13.43;;;6.70;99.90;;;;;;5004874;28;20413;-74
2024/01/31 06:55:13;;;;;;;18.10;12.57;;;6.70;99.90;;;;;;4998306;28;20413;-75
2024/01/31 06:57:42;;;;;;;20.92;14.10;;;6.60;99.90;;;;;;5007740;28;20440;-75
2024/01/31 07:00:11;;;;;;;22.83;14.57;;;6.60;99.90;;;;;;5003674;28;20422;-73
2024/01/31 07:02:38;;;;;;;20.58;14.85;;;6.70;99.90;;;;;;5007204;28;20413;-74
2024/01/31 07:05:05;;;;;;;17.20;11.43;;;6.70;99.90;;;;;;5005703;28;20419;-74
2024/01/31 07:07:33;;;;;;;14.88;10.95;;;6.60;99.90;;;;;;5005901;28;20424;-74
2024/01/31 07:10:00;;;;;;;16.88;12.40;;;6.60;99.90;;;;;;5004629;28;20788;-74
2024/01/31 07:12:26;;;;;;;19.40;13.40;;;6.50;99.90;;;;;;4996778;28;20463;-72
2024/01/31 07:14:54;;;;;;;18.02;13.20;;;6.50;99.90;;;;;;5009068;28;20425;-72
2024/01/31 07:17:22;;;;;;;21.55;13.52;;;6.50;99.90;;;;;;5009721;28;20417;-72
2024/01/31 07:19:48;;;;;;;19.38;13.55;;;6.60;99.90;;;;;;5007051;28;20482;-73
2024/01/31 07:22:15;;;;;;;20.08;13.70;;;6.60;99.90;;;;;;4999880;28;20782;-72
2024/01/31 07:24:43;;;;;;;19.38;14.30;;;6.50;99.90;;;;;;5007671;28;20499;-73
2024/01/31 07:27:10;;;;;;;19.57;13.70;;;6.50;99.90;;;;;;4995738;28;20418;-74
2024/01/31 07:29:37;;;;;;;22.13;14.35;;;6.60;99.90;;;;;;5001375;28;20419;-73
2024/01/31 07:32:05;;;;;;;18.38;13.10;;;6.50;99.90;;;;;;5004415;28;20422;-72
2024/01/31 07:34:32;;;;;;;17.40;12.40;;;6.50;99.90;;;;;;5000788;28;20428;-74
2024/01/31 07:36:59;;;;;;;17.55;13.00;;;6.50;99.90;;;;;;5001781;28;20911;-72
2024/01/31 07:39:26;;;;;;;17.63;12.60;;;6.50;99.90;;;;;;5005994;28;20444;-72
2024/01/31 07:41:53;;;;;;;17.23;12.20;;;6.50;99.90;;;;;;5008178;28;20885;-72
2024/01/31 07:44:20;;;;;;;18.08;11.50;;;6.50;99.90;;;;;;5008743;28;20412;-74
2024/01/31 07:46:46;;;;;;;16.65;11.90;;;6.50;99.90;;;;;;5008999;28;20417;-71
2024/01/31 07:49:15;;;;;;;16.75;12.00;;;6.50;99.90;;;;;;5001493;28;20909;-72
2024/01/31 07:51:42;;;;;;;14.40;10.40;;;6.60;99.90;;;;;;5004193;28;20949;-72
2024/01/31 07:54:09;;;;;;;12.15;8.35;;;6.50;99.90;;;;;;5003149;28;20625;-73
2024/01/31 07:56:36;;;;;;;12.43;8.23;;;6.60;99.90;;;;;;5008337;28;20962;-73
2024/01/31 07:59:02;;;;;;;10.20;7.80;;;6.50;99.90;;;;;;4996073;28;20805;-72
2024/01/31 08:01:29;;;;;;;10.27;7.72;;;6.50;99.90;;;;;;5007088;28;20424;-75
2024/01/31 08:03:56;;;;;;;10.63;7.50;;;6.50;99.90;;;;;;5004878;28;20419;-72
2024/01/31 08:06:24;;;;;;;10.87;7.93;;;6.50;99.90;;;;;;4999412;28;20420;-73
2024/01/31 08:08:51;;;;;;;12.13;7.90;;;6.50;99.90;;;;;;5008647;28;20966;-72
2024/01/31 08:11:18;;;;;;;13.10;8.90;;;6.50;99.90;;;;;;5008789;28;20416;-72
2024/01/31 08:13:45;;;;;;;11.35;8.60;;;6.60;99.90;;;;;;5003644;28;20417;-73
2024/01/31 08:16:12;;;;;;;13.18;9.38;;;6.60;99.90;;;;;;5008353;28;20420;-73
2024/01/31 08:18:39;;;;;;;13.23;11.00;;;6.60;99.90;;;;;;5004595;28;20524;-74
2024/01/31 08:21:08;;;;;;;17.33;12.13;;;6.60;99.90;;;;;;5003995;28;20931;-73
2024/01/31 08:23:36;;;;;;;19.45;14.52;;;6.60;99.90;;;;;;4995553;28;20414;-72
2024/01/31 08:26:03;;;;;;;21.00;14.90;;;6.60;99.90;;;;;;5004134;28;20895;-71
2024/01/31 08:28:30;;;;;;;20.90;15.35;;;6.70;99.90;;;;;;5007391;28;20515;-71
2024/01/31 08:30:57;;;;;;;19.27;15.60;;;6.70;99.90;;;;;;5001029;28;20409;-72
2024/01/31 08:33:23;;;;;;;21.35;15.38;;;6.70;99.90;;;;;;5000726;28;20435;-73
2024/01/31 08:35:50;;;;;;;21.98;16.40;;;6.70;99.90;;;;;;4998794;28;20929;-73
2024/01/31 08:38:18;;;;;;;22.70;16.70;;;6.70;99.90;;;;;;5005277;28;20424;-73
2024/01/31 08:40:46;;;;;;;24.20;16.75;;;6.70;99.90;;;;;;5008761;28;20431;-73
2024/01/31 08:43:12;;;;;;;24.67;17.55;;;6.70;99.90;;;;;;5003486;28;20417;-73
2024/01/31 08:45:39;;;;;;;25.13;18.10;;;6.80;99.90;;;;;;4999213;28;20422;-73
2024/01/31 08:48:06;;;;;;;24.63;18.53;;;6.80;99.90;;;;;;4996769;28;20409;-73
2024/01/31 08:50:33;;;;;;;24.95;18.10;;;6.80;99.90;;;;;;5002241;28;20898;-73
2024/01/31 08:53:00;;;;;;;24.10;18.08;;;6.80;99.90;;;;;;5005790;28;20428;-73
2024/01/31 08:55:27;;;;;;;27.48;19.40;;;6.90;99.90;;;;;;5008196;28;20903;-72
2024/01/31 08:57:55;;;;;;;23.42;18.10;;;6.90;99.90;;;;;;4998441;28;20424;-73
2024/01/31 09:00:22;;;;;;;23.90;17.05;;;6.90;99.90;;;;;;5004262;28;20899;-73
2024/01/31 09:02:48;;;;;;;23.13;18.03;;;7.00;99.90;;;;;;5004382;28;20420;-72
2024/01/31 09:05:15;;;;;;;24.15;18.70;;;7.00;99.90;;;;;;4999157;28;20914;-74
2024/01/31 09:07:42;;;;;;;23.23;18.92;;;7.00;99.90;;;;;;5008001;28;20419;-72
2024/01/31 09:10:09;;;;;;;23.98;19.20;;;7.00;99.90;;;;;;5008291;28;20413;-72
2024/01/31 09:12:36;;;;;;;24.27;19.10;;;7.00;99.90;;;;;;5003850;28;20423;-74
2024/01/31 09:15:05;;;;;;;25.33;18.50;;;7.10;99.90;;;;;;5008084;28;20768;-72
2024/01/31 09:17:31;;;;;;;26.35;18.73;;;7.00;99.90;;;;;;5006068;28;20412;-72
2024/01/31 09:19:58;;;;;;;25.15;19.83;;;7.10;99.90;;;;;;5008694;28;20501;-72
2024/01/31 09:22:25;;;;;;;22.13;17.85;;;7.10;99.90;;;;;;5001408;28;20441;-72
2024/01/31 09:24:52;;;;;;;25.20;18.50;;;7.10;99.90;;;;;;5009207;28;20470;-72
2024/01/31 09:27:19;;;;;;;24.65;19.15;;;7.20;99.90;;;;;;5002649;28;20474;-73
2024/01/31 09:29:46;;;;;;;23.17;18.55;;;7.20;99.90;;;;;;5004126;28;20416;-73
2024/01/31 09:32:15;;;;;;;21.25;17.80;;;7.20;99.90;;;;;;5005840;28;20418;-74
2024/01/31 09:34:42;;;;;;;25.33;18.58;;;7.20;99.90;;;;;;5003193;28;20459;-73
2024/01/31 09:37:08;;;;;;;24.75;19.70;;;7.20;99.90;;;;;;5006774;28;20425;-74
2024/01/31 09:39:35;;;;;;;23.92;18.70;;;7.20;99.90;;;;;;5004772;28;20799;-73
2024/01/31 09:42:03;;;;;;;23.02;19.02;;;7.30;99.90;;;;;;5004266;28;20420;-74
2024/01/31 09:44:30;;;;;;;24.17;19.50;;;7.30;99.90;;;;;;5003801;28;20422;-74
2024/01/31 09:46:59;;;;;;;23.23;18.75;;;7.30;99.90;;;;;;5001046;28;20423;-74
2024/01/31 09:49:28;;;;;;;24.93;21.70;;;7.40;99.90;;;;;;4999519;28;20836;-74
2024/01/31 09:51:59;;;;;;;25.98;20.48;;;7.40;99.90;;;;;;5004735;28;20423;-74
2024/01/31 09:54:26;;;;;;;23.58;19.45;;;7.40;99.90;;;;;;5006398;28;20409;-73
2024/01/31 09:56:53;;;;;;;24.17;18.63;;;7.40;99.90;;;;;;5005961;28;20832;-72
2024/01/31 09:59:20;;;;;;;23.08;18.10;;;7.40;99.90;;;;;;5001757;28;20434;-73
2024/01/31 10:01:48;;;;;;;24.07;19.33;;;7.40;99.90;;;;;;5009718;28;20416;-73
2024/01/31 10:04:15;;;;;;;22.00;18.00;;;7.50;99.90;;;;;;4998817;28;20893;-74
2024/01/31 10:06:44;;;;;;;25.33;18.27;;;7.50;99.90;;;;;;5009197;28;20413;-73
2024/01/31 10:09:11;;;;;;;22.05;16.98;;;7.50;99.90;;;;;;5009671;28;20467;-74
2024/01/31 10:11:38;;;;;;;21.70;17.80;;;7.50;99.90;;;;;;5010551;28;20421;-74
2024/01/31 10:14:04;;;;;;;22.43;16.87;;;7.50;99.90;;;;;;5005428;28;20447;-73
2024/01/31 10:16:31;;;;;;;19.70;16.60;;;7.50;99.90;;;;;;5011112;28;20420;-72
2024/01/31 10:18:58;;;;;;;20.77;17.20;;;7.60;99.90;;;;;;5002887;28;20440;-72
2024/01/31 10:21:26;;;;;;;19.13;16.20;;;7.60;99.90;;;;;;5011956;28;20420;-72
2024/01/31 10:24:02;;;;;;;15.48;13.60;;;7.70;99.90;;;;;;5001659;28;20416;-72
2024/01/31 10:26:29;;;;;;;17.65;15.20;;;7.70;99.90;;;;;;4999767;28;20418;-73
2024/01/31 10:28:56;;;;;;;17.50;14.65;;;7.70;99.90;;;;;;5010179;28;20416;-71
2024/01/31 10:31:23;;;;;;;14.35;12.65;;;7.70;99.90;;;;;;5010728;28;20421;-73
2024/01/31 10:33:50;;;;;;;14.35;11.90;;;7.70;99.90;;;;;;5010574;28;20424;-72
2024/01/31 10:36:18;;;;;;;13.38;11.73;;;7.70;99.90;;;;;;5005783;28;20435;-72
2024/01/31 10:38:46;;;;;;;12.40;10.63;;;7.70;99.90;;;;;;5011505;28;20432;-72
2024/01/31 10:41:15;;;;;;;10.80;9.70;;;7.70;99.90;;;;;;5010920;28;20413;-72
2024/01/31 10:43:43;;;;;;;11.53;10.33;;;7.70;99.90;;;;;;5002395;23;21020;-70
2024/01/31 10:46:10;;;;;;;10.85;9.45;;;7.70;99.90;;;;;;4963942;28;20534;-70
2024/01/31 10:48:38;;;;;;;10.95;9.85;;;7.70;99.90;;;;;;4968723;28;20421;-68
2024/01/31 10:51:09;;;;;;;12.10;10.20;;;7.70;99.90;;;;;;4976016;28;20749;-70
2024/01/31 10:53:36;;;;;;;9.73;8.73;;;7.80;99.90;;;;;;4976351;28;20439;-70
2024/01/31 10:56:05;;;;;;;9.10;8.20;;;7.90;99.90;;;;;;4976058;28;20902;-70
2024/01/31 10:58:34;;;;;;;8.50;7.60;;;7.90;99.90;;;;;;4976457;28;20416;-70
2024/01/31 11:01:04;;;;;;;9.05;8.00;;;7.90;99.90;;;;;;4976278;28;20500;-69
2024/01/31 11:03:32;;;;;;;7.80;6.95;;;8.00;99.90;;;;;;4977125;28;20424;-70
2024/01/31 11:05:58;;;;;;;7.80;6.40;;;8.00;99.90;;;;;;4969390;28;20458;-70
2024/01/31 11:08:26;;;;;;;8.10;7.30;;;8.10;99.90;;;;;;4968234;28;20424;-70
2024/01/31 11:10:54;;;;;;;8.45;7.55;;;8.10;99.90;;;;;;4968126;28;20434;-69
2024/01/31 11:13:21;;;;;;;6.75;6.05;;;8.20;99.90;;;;;;4970630;28;20443;-70
2024/01/31 11:15:49;;;;;;;7.18;6.20;;;8.30;99.90;;;;;;4969122;28;20427;-70
2024/01/31 11:18:16;;;;;;;6.50;5.90;;;8.30;99.90;;;;;;4968154;28;20424;-69
2024/01/31 11:20:47;;;;;;;6.60;6.00;;;8.30;99.90;;;;;;4968064;28;20776;-70
2024/01/31 11:23:15;;;;;;;6.47;5.87;;;8.30;99.90;;;;;;4967498;28;20427;-70
2024/01/31 11:25:43;;;;;;;7.05;6.35;;;8.30;99.90;;;;;;4968943;28;20442;-70
2024/01/31 11:28:12;;;;;;;6.40;5.80;;;8.40;99.90;;;;;;4968828;28;20506;-71
2024/01/31 11:30:39;;;;;;;6.88;6.07;;;8.40;99.90;;;;;;4968982;28;20856;-69
2024/01/31 11:33:08;;;;;;;6.38;5.78;;;8.40;99.90;;;;;;4968534;28;20423;-70
2024/01/31 11:35:35;;;;;;;6.32;5.72;;;8.40;99.90;;;;;;4968717;28;20591;-70
2024/01/31 11:38:02;;;;;;;7.37;6.00;;;8.40;99.90;;;;;;4970544;28;20945;-69
2024/01/31 11:40:30;;;;;;;6.88;5.78;;;8.40;99.90;;;;;;4971511;28;20432;-69
2024/01/31 11:42:57;;;;;;;6.25;5.65;;;8.40;99.90;;;;;;4967539;28;20570;-69
2024/01/31 11:45:25;;;;;;;6.18;5.57;;;8.40;99.90;;;;;;4972153;28;20498;-70
2024/01/31 11:47:54;;;;;;;5.50;5.00;;;8.40;99.90;;;;;;4973017;28;20424;-70
2024/01/31 11:50:23;;;;;;;6.05;5.45;;;8.50;99.90;;;;;;4973906;28;20484;-70
2024/01/31 11:52:50;;;;;;;5.95;5.35;;;8.40;99.90;;;;;;4968335;28;20419;-70
2024/01/31 11:55:21;;;;;;;5.50;5.00;;;8.40;99.90;;;;;;4968354;28;20428;-70
2024/01/31 11:57:48;;;;;;;5.97;5.47;;;8.40;99.90;;;;;;4970629;28;20424;-70
2024/01/31 12:00:15;;;;;;;5.95;5.25;;;8.30;99.90;;;;;;4984862;28;20440;-70
2024/01/31 12:02:42;;;;;;;5.17;4.67;;;8.30;99.90;;;;;;4986632;28;20527;-71
2024/01/31 12:05:09;;;;;;;5.18;4.60;;;8.30;99.90;;;;;;4985563;28;20428;-69
2024/01/31 12:07:37;;;;;;;5.75;5.15;;;8.30;99.90;;;;;;4980004;28;20420;-70
2024/01/31 12:10:06;;;;;;;4.90;4.50;;;8.30;99.90;;;;;;4977064;28;20440;-70
2024/01/31 12:12:35;;;;;;;5.00;4.60;;;8.30;99.90;;;;;;4977030;28;20787;-70
2024/01/31 12:15:02;;;;;;;4.80;4.40;;;8.30;99.90;;;;;;4975446;28;20518;-69
2024/01/31 12:17:29;;;;;;;5.38;4.88;;;8.30;99.90;;;;;;4976470;28;20474;-70
2024/01/31 12:20:04;;;;;;;5.18;4.68;;;8.30;99.90;;;;;;4969813;28;20526;-70
2024/01/31 12:22:31;;;;;;;5.30;4.80;;;8.30;99.90;;;;;;4969919;28;20420;-70
2024/01/31 12:25:01;;;;;;;5.03;4.53;;;8.30;99.90;;;;;;4976466;28;20416;-70
2024/01/31 12:27:27;;;;;;;5.40;4.90;;;8.20;99.90;;;;;;4978224;28;20499;-70
2024/01/31 12:29:54;;;;;;;5.70;5.20;;;8.20;99.90;;;;;;4977148;28;20839;-70
2024/01/31 12:32:21;;;;;;;5.57;5.10;;;8.20;99.90;;;;;;4978698;28;20434;-70
2024/01/31 12:34:48;;;;;;;5.72;5.20;;;8.20;99.90;;;;;;4976084;28;20420;-70
2024/01/31 12:37:14;;;;;;;6.28;5.30;;;8.30;99.90;;;;;;4971543;28;20890;-70
2024/01/31 12:39:42;;;;;;;5.75;5.15;;;8.20;99.90;;;;;;4967404;28;20432;-70